<?xml version="1.0" encoding="UTF-8" standalone="no" ?>
<gpx xmlns="http://www.topografix.com/GPX/1/1" xmlns:xsi="http://www.w3.org/2001/XMLSchema-instance" xsi:schemaLocation="http://www.topografix.com/GPX/1/1 http://www.topografix.com/GPX/1/1/gpx.xsd" version="1.1" creator="VisuGPX - https://www.visugpx.com">
  <metadata>
    <name>Les Sauvages 2</name>
  </metadata>
  <wpt lat="45.92766" lon="4.36185">
    <ele>606.9</ele>
  </wpt>
  <trk>
    <name><![CDATA[Les Sauvages 2_1]]></name>
    <extensions>
      <line xmlns="http://www.topografix.com/GPX/gpx_style/0/2">
        <color>0000FF</color>
        <width>4</width>
      </line>
    </extensions>
    <trkseg>
      <trkpt lat="45.9285" lon="4.38414">
        <ele>721.1</ele>
      </trkpt>
      <trkpt lat="45.92828" lon="4.3838">
        <ele>718</ele>
      </trkpt>
      <trkpt lat="45.92775" lon="4.38365">
        <ele>717</ele>
      </trkpt>
      <trkpt lat="45.92708" lon="4.38392">
        <ele>709</ele>
      </trkpt>
      <trkpt lat="45.92698" lon="4.38361">
        <ele>709</ele>
      </trkpt>
      <trkpt lat="45.92645" lon="4.38374">
        <ele>700</ele>
      </trkpt>
      <trkpt lat="45.92672" lon="4.38333">
        <ele>707</ele>
      </trkpt>
      <trkpt lat="45.92685" lon="4.38285">
        <ele>711</ele>
      </trkpt>
      <trkpt lat="45.9266" lon="4.38163">
        <ele>709.5</ele>
      </trkpt>
      <trkpt lat="45.92648" lon="4.38066">
        <ele>710.4</ele>
      </trkpt>
      <trkpt lat="45.92648" lon="4.37975">
        <ele>714</ele>
      </trkpt>
      <trkpt lat="45.92647" lon="4.3776">
        <ele>721</ele>
      </trkpt>
      <trkpt lat="45.92666" lon="4.37705">
        <ele>721</ele>
      </trkpt>
      <trkpt lat="45.92735" lon="4.37749">
        <ele>717</ele>
      </trkpt>
      <trkpt lat="45.92853" lon="4.3759">
        <ele>697.9</ele>
      </trkpt>
      <trkpt lat="45.92976" lon="4.37391">
        <ele>662</ele>
      </trkpt>
      <trkpt lat="45.9303" lon="4.37327">
        <ele>655</ele>
        <time>2020-02-16T15:52:58Z</time>
      </trkpt>
      <trkpt lat="45.93079" lon="4.37093">
        <ele>629</ele>
        <time>2020-02-16T15:56:45Z</time>
      </trkpt>
      <trkpt lat="45.93084" lon="4.36935">
        <ele>619</ele>
        <time>2020-02-16T15:59:12Z</time>
      </trkpt>
      <trkpt lat="45.93112" lon="4.3684">
        <ele>616</ele>
        <time>2020-02-16T16:00:47Z</time>
      </trkpt>
      <trkpt lat="45.93214" lon="4.36646">
        <ele>599</ele>
        <time>2020-02-16T16:04:33Z</time>
      </trkpt>
      <trkpt lat="45.93242" lon="4.36498">
        <ele>583</ele>
        <time>2020-02-16T16:06:55Z</time>
      </trkpt>
      <trkpt lat="45.93277" lon="4.36371">
        <ele>569</ele>
        <time>2020-02-16T16:09:02Z</time>
      </trkpt>
      <trkpt lat="45.93338" lon="4.36251">
        <ele>557</ele>
        <time>2020-02-16T16:11:20Z</time>
      </trkpt>
      <trkpt lat="45.93435" lon="4.36219">
        <ele>552</ele>
        <time>2020-02-16T16:13:33Z</time>
      </trkpt>
      <trkpt lat="45.93517" lon="4.36049">
        <ele>549</ele>
        <time>2020-02-16T16:16:45Z</time>
      </trkpt>
      <trkpt lat="45.93629" lon="4.35902">
        <ele>541</ele>
        <time>2020-02-16T16:20:07Z</time>
      </trkpt>
      <trkpt lat="45.93611" lon="4.35832">
        <ele>552</ele>
        <time>2020-02-16T16:21:17Z</time>
      </trkpt>
      <trkpt lat="45.93638" lon="4.35766">
        <ele>550</ele>
        <time>2020-02-16T16:22:28Z</time>
      </trkpt>
      <trkpt lat="45.93647" lon="4.35687">
        <ele>552</ele>
        <time>2020-02-16T16:23:42Z</time>
      </trkpt>
      <trkpt lat="45.93735" lon="4.35533">
        <ele>557</ele>
        <time>2020-02-16T16:26:47Z</time>
      </trkpt>
      <trkpt lat="45.93872" lon="4.35442">
        <ele>548</ele>
        <time>2020-02-16T16:30:08Z</time>
      </trkpt>
      <trkpt lat="45.93936" lon="4.35291">
        <ele>527</ele>
        <time>2020-02-16T16:32:52Z</time>
      </trkpt>
      <trkpt lat="45.94" lon="4.35309">
        <ele>523</ele>
        <time>2020-02-16T16:34:20Z</time>
      </trkpt>
      <trkpt lat="45.94033" lon="4.35276">
        <ele>522</ele>
        <time>2020-02-16T16:35:13Z</time>
      </trkpt>
      <trkpt lat="45.94085" lon="4.35368">
        <ele>512</ele>
        <time>2020-02-16T16:37:03Z</time>
      </trkpt>
      <trkpt lat="45.94144" lon="4.3541">
        <ele>507</ele>
        <time>2020-02-16T16:38:31Z</time>
      </trkpt>
      <trkpt lat="45.94183" lon="4.35437">
        <ele>513</ele>
        <time>2020-02-16T16:39:29Z</time>
      </trkpt>
      <trkpt lat="45.94403" lon="4.35391">
        <ele>506</ele>
        <time>2020-02-16T16:44:25Z</time>
      </trkpt>
      <trkpt lat="45.94477" lon="4.35388">
        <ele>505</ele>
        <time>2020-02-16T16:46:04Z</time>
      </trkpt>
      <trkpt lat="45.94509" lon="4.35449">
        <ele>510</ele>
        <time>2020-02-16T16:47:15Z</time>
      </trkpt>
      <trkpt lat="45.94552" lon="4.35539">
        <ele>518</ele>
        <time>2020-02-16T16:48:56Z</time>
      </trkpt>
      <trkpt lat="45.94655" lon="4.35577">
        <ele>508</ele>
        <time>2020-02-16T16:51:18Z</time>
      </trkpt>
      <trkpt lat="45.94681" lon="4.35626">
        <ele>513</ele>
        <time>2020-02-16T16:52:16Z</time>
      </trkpt>
      <trkpt lat="45.94778" lon="4.35642">
        <ele>517</ele>
        <time>2020-02-16T16:54:26Z</time>
      </trkpt>
      <trkpt lat="45.94749" lon="4.35495">
        <ele>524</ele>
        <time>2020-02-16T16:56:48Z</time>
      </trkpt>
      <trkpt lat="45.94734" lon="4.35429">
        <ele>527</ele>
        <time>2020-02-16T16:57:52Z</time>
      </trkpt>
      <trkpt lat="45.94731" lon="4.35352">
        <ele>530</ele>
        <time>2020-02-16T16:59:04Z</time>
      </trkpt>
      <trkpt lat="45.94731" lon="4.35352">
        <ele>529.6</ele>
      </trkpt>
      <trkpt lat="45.94731" lon="4.35345">
        <ele>530</ele>
      </trkpt>
      <trkpt lat="45.94735" lon="4.3533">
        <ele>531.8</ele>
      </trkpt>
      <trkpt lat="45.94742" lon="4.3532">
        <ele>534</ele>
      </trkpt>
      <trkpt lat="45.94754" lon="4.35304">
        <ele>537.7</ele>
      </trkpt>
      <trkpt lat="45.94767" lon="4.35291">
        <ele>540.5</ele>
      </trkpt>
      <trkpt lat="45.9478" lon="4.35274">
        <ele>543</ele>
      </trkpt>
      <trkpt lat="45.94792" lon="4.3526">
        <ele>545</ele>
      </trkpt>
      <trkpt lat="45.94798" lon="4.35278">
        <ele>547</ele>
      </trkpt>
      <trkpt lat="45.94801" lon="4.35298">
        <ele>548.6</ele>
      </trkpt>
      <trkpt lat="45.94805" lon="4.35303">
        <ele>549.9</ele>
      </trkpt>
      <trkpt lat="45.9483" lon="4.35313">
        <ele>556.6</ele>
      </trkpt>
      <trkpt lat="45.94837" lon="4.35316">
        <ele>557.9</ele>
      </trkpt>
      <trkpt lat="45.94842" lon="4.35324">
        <ele>558.8</ele>
      </trkpt>
      <trkpt lat="45.94844" lon="4.35331">
        <ele>559.4</ele>
      </trkpt>
      <trkpt lat="45.94847" lon="4.35335">
        <ele>559.8</ele>
      </trkpt>
      <trkpt lat="45.94856" lon="4.35341">
        <ele>560.4</ele>
      </trkpt>
      <trkpt lat="45.94864" lon="4.35345">
        <ele>561.1</ele>
      </trkpt>
      <trkpt lat="45.94874" lon="4.3535">
        <ele>562.1</ele>
      </trkpt>
      <trkpt lat="45.94906" lon="4.35362">
        <ele>566.2</ele>
      </trkpt>
      <trkpt lat="45.94937" lon="4.35378">
        <ele>570</ele>
      </trkpt>
      <trkpt lat="45.94967" lon="4.35403">
        <ele>576</ele>
      </trkpt>
      <trkpt lat="45.94977" lon="4.35413">
        <ele>578.9</ele>
      </trkpt>
      <trkpt lat="45.94993" lon="4.35436">
        <ele>583.7</ele>
      </trkpt>
      <trkpt lat="45.95005" lon="4.35458">
        <ele>587.2</ele>
      </trkpt>
      <trkpt lat="45.95019" lon="4.3552">
        <ele>594.9</ele>
      </trkpt>
      <trkpt lat="45.95022" lon="4.35538">
        <ele>596.4</ele>
      </trkpt>
      <trkpt lat="45.95027" lon="4.35552">
        <ele>598</ele>
      </trkpt>
      <trkpt lat="45.95037" lon="4.35568">
        <ele>600.4</ele>
      </trkpt>
      <trkpt lat="45.95047" lon="4.35587">
        <ele>603.1</ele>
      </trkpt>
      <trkpt lat="45.9506" lon="4.3562">
        <ele>605.2</ele>
      </trkpt>
      <trkpt lat="45.95071" lon="4.35654">
        <ele>608.6</ele>
      </trkpt>
      <trkpt lat="45.95091" lon="4.35709">
        <ele>610.1</ele>
      </trkpt>
      <trkpt lat="45.95099" lon="4.3573">
        <ele>609.2</ele>
      </trkpt>
      <trkpt lat="45.95114" lon="4.35764">
        <ele>608.6</ele>
      </trkpt>
      <trkpt lat="45.95116" lon="4.35771">
        <ele>608.6</ele>
      </trkpt>
      <trkpt lat="45.9512" lon="4.35784">
        <ele>608.6</ele>
      </trkpt>
      <trkpt lat="45.95138" lon="4.35845">
        <ele>608.8</ele>
      </trkpt>
      <trkpt lat="45.9515" lon="4.35877">
        <ele>610.9</ele>
      </trkpt>
      <trkpt lat="45.95171" lon="4.35926">
        <ele>616.9</ele>
      </trkpt>
      <trkpt lat="45.95187" lon="4.35952">
        <ele>620.2</ele>
      </trkpt>
      <trkpt lat="45.95194" lon="4.35961">
        <ele>621.7</ele>
      </trkpt>
      <trkpt lat="45.95202" lon="4.3597">
        <ele>623.6</ele>
      </trkpt>
      <trkpt lat="45.95214" lon="4.35985">
        <ele>626.8</ele>
      </trkpt>
      <trkpt lat="45.95228" lon="4.36003">
        <ele>631</ele>
      </trkpt>
      <trkpt lat="45.95251" lon="4.36026">
        <ele>635.9</ele>
      </trkpt>
      <trkpt lat="45.95282" lon="4.36058">
        <ele>640.1</ele>
      </trkpt>
      <trkpt lat="45.95291" lon="4.36068">
        <ele>641.9</ele>
      </trkpt>
      <trkpt lat="45.95317" lon="4.36098">
        <ele>647.1</ele>
      </trkpt>
      <trkpt lat="45.95373" lon="4.36162">
        <ele>659.5</ele>
      </trkpt>
      <trkpt lat="45.95385" lon="4.36184">
        <ele>662.2</ele>
      </trkpt>
      <trkpt lat="45.95394" lon="4.36204">
        <ele>664.2</ele>
      </trkpt>
      <trkpt lat="45.95405" lon="4.36223">
        <ele>666.9</ele>
      </trkpt>
      <trkpt lat="45.95422" lon="4.3625">
        <ele>671.1</ele>
      </trkpt>
      <trkpt lat="45.95435" lon="4.36266">
        <ele>669.5</ele>
      </trkpt>
      <trkpt lat="45.95459" lon="4.36286">
        <ele>668.2</ele>
      </trkpt>
      <trkpt lat="45.95468" lon="4.36297">
        <ele>667.6</ele>
      </trkpt>
      <trkpt lat="45.95484" lon="4.36319">
        <ele>666.7</ele>
      </trkpt>
      <trkpt lat="45.95496" lon="4.36339">
        <ele>665.4</ele>
      </trkpt>
      <trkpt lat="45.95513" lon="4.36364">
        <ele>660.8</ele>
      </trkpt>
      <trkpt lat="45.95521" lon="4.36376">
        <ele>658.9</ele>
      </trkpt>
      <trkpt lat="45.95586" lon="4.36462">
        <ele>656</ele>
      </trkpt>
      <trkpt lat="45.95687" lon="4.36661">
        <ele>678</ele>
      </trkpt>
      <trkpt lat="45.95716" lon="4.36715">
        <ele>682.4</ele>
      </trkpt>
      <trkpt lat="45.9573" lon="4.36736">
        <ele>683</ele>
      </trkpt>
      <trkpt lat="45.95777" lon="4.36797">
        <ele>682.9</ele>
      </trkpt>
      <trkpt lat="45.9579" lon="4.36815">
        <ele>683.2</ele>
      </trkpt>
      <trkpt lat="45.95805" lon="4.36838">
        <ele>685.3</ele>
      </trkpt>
      <trkpt lat="45.95815" lon="4.36858">
        <ele>685.7</ele>
      </trkpt>
      <trkpt lat="45.95815" lon="4.36858">
        <ele>685.7</ele>
      </trkpt>
      <trkpt lat="45.95817" lon="4.36873">
        <ele>686.2</ele>
      </trkpt>
      <trkpt lat="45.95819" lon="4.36938">
        <ele>687.2</ele>
      </trkpt>
      <trkpt lat="45.95826" lon="4.36983">
        <ele>687</ele>
      </trkpt>
      <trkpt lat="45.9583" lon="4.36995">
        <ele>688.7</ele>
      </trkpt>
      <trkpt lat="45.95846" lon="4.37036">
        <ele>687.5</ele>
      </trkpt>
      <trkpt lat="45.95866" lon="4.37079">
        <ele>686.2</ele>
      </trkpt>
      <trkpt lat="45.95881" lon="4.37117">
        <ele>683</ele>
      </trkpt>
      <trkpt lat="45.95915" lon="4.37241">
        <ele>683.1</ele>
      </trkpt>
      <trkpt lat="45.95927" lon="4.37293">
        <ele>686.7</ele>
      </trkpt>
      <trkpt lat="45.95929" lon="4.37329">
        <ele>690.1</ele>
      </trkpt>
      <trkpt lat="45.95927" lon="4.37358">
        <ele>697.2</ele>
      </trkpt>
      <trkpt lat="45.95924" lon="4.37372">
        <ele>699.2</ele>
      </trkpt>
      <trkpt lat="45.95915" lon="4.37402">
        <ele>704.9</ele>
      </trkpt>
      <trkpt lat="45.95902" lon="4.37463">
        <ele>711.7</ele>
      </trkpt>
      <trkpt lat="45.95881" lon="4.37529">
        <ele>718.1</ele>
      </trkpt>
      <trkpt lat="45.95873" lon="4.37584">
        <ele>723.5</ele>
      </trkpt>
      <trkpt lat="45.95872" lon="4.3761">
        <ele>724</ele>
      </trkpt>
      <trkpt lat="45.95882" lon="4.37667">
        <ele>728.6</ele>
      </trkpt>
      <trkpt lat="45.95885" lon="4.37694">
        <ele>728.8</ele>
      </trkpt>
      <trkpt lat="45.95897" lon="4.37746">
        <ele>731.5</ele>
      </trkpt>
      <trkpt lat="45.95912" lon="4.37835">
        <ele>738</ele>
      </trkpt>
      <trkpt lat="45.95924" lon="4.37885">
        <ele>741.7</ele>
      </trkpt>
      <trkpt lat="45.95925" lon="4.37907">
        <ele>741.1</ele>
      </trkpt>
      <trkpt lat="45.95924" lon="4.37924">
        <ele>742.4</ele>
      </trkpt>
      <trkpt lat="45.95923" lon="4.37934">
        <ele>743.8</ele>
      </trkpt>
      <trkpt lat="45.96137" lon="4.38257">
        <ele>765.4</ele>
      </trkpt>
      <trkpt lat="45.96199" lon="4.38501">
        <ele>781</ele>
      </trkpt>
      <trkpt lat="45.96277" lon="4.38654">
        <ele>776</ele>
      </trkpt>
      <trkpt lat="45.96378" lon="4.38741">
        <ele>773</ele>
        <time>2020-02-16T20:12:10Z</time>
      </trkpt>
      <trkpt lat="45.9605" lon="4.38627">
        <ele>772</ele>
        <time>2020-02-16T20:19:40Z</time>
      </trkpt>
      <trkpt lat="45.95916" lon="4.38642">
        <ele>768</ele>
        <time>2020-02-16T20:22:40Z</time>
      </trkpt>
      <trkpt lat="45.95774" lon="4.38775">
        <ele>766</ele>
        <time>2020-02-16T20:26:26Z</time>
      </trkpt>
      <trkpt lat="45.95542" lon="4.3894">
        <ele>785</ele>
        <time>2020-02-16T20:32:11Z</time>
      </trkpt>
      <trkpt lat="45.95422" lon="4.3894">
        <ele>795</ele>
        <time>2020-02-16T20:34:51Z</time>
      </trkpt>
      <trkpt lat="45.95301" lon="4.38998">
        <ele>797</ele>
        <time>2020-02-16T20:37:42Z</time>
      </trkpt>
      <trkpt lat="45.94755" lon="4.38998">
        <ele>821</ele>
        <time>2020-02-16T20:49:50Z</time>
      </trkpt>
      <trkpt lat="45.94684" lon="4.38833">
        <ele>843</ele>
        <time>2020-02-16T20:52:50Z</time>
      </trkpt>
      <trkpt lat="45.94618" lon="4.38805">
        <ele>849</ele>
        <time>2020-02-16T20:54:22Z</time>
      </trkpt>
      <trkpt lat="45.94585" lon="4.38833">
        <ele>856</ele>
        <time>2020-02-16T20:55:13Z</time>
      </trkpt>
      <trkpt lat="45.94432" lon="4.39011">
        <ele>864</ele>
        <time>2020-02-16T20:59:36Z</time>
      </trkpt>
      <trkpt lat="45.94369" lon="4.39035">
        <ele>862</ele>
        <time>2020-02-16T21:01:03Z</time>
      </trkpt>
      <trkpt lat="45.9425" lon="4.38998">
        <ele>861</ele>
        <time>2020-02-16T21:03:45Z</time>
      </trkpt>
      <trkpt lat="45.94141" lon="4.38951">
        <ele>860</ele>
        <time>2020-02-16T21:06:17Z</time>
      </trkpt>
      <trkpt lat="45.94048" lon="4.38957">
        <ele>860</ele>
        <time>2020-02-16T21:08:21Z</time>
      </trkpt>
      <trkpt lat="45.93853" lon="4.38837">
        <ele>847</ele>
        <time>2020-02-16T21:13:04Z</time>
      </trkpt>
      <trkpt lat="45.93718" lon="4.38728">
        <ele>853.1</ele>
      </trkpt>
      <trkpt lat="45.93592" lon="4.38801">
        <ele>846</ele>
      </trkpt>
      <trkpt lat="45.93429" lon="4.38867">
        <ele>816</ele>
      </trkpt>
      <trkpt lat="45.93203" lon="4.38873">
        <ele>772</ele>
      </trkpt>
      <trkpt lat="45.93176" lon="4.38785">
        <ele>766</ele>
      </trkpt>
      <trkpt lat="45.931" lon="4.38837">
        <ele>755</ele>
      </trkpt>
      <trkpt lat="45.93081" lon="4.38901">
        <ele>747</ele>
      </trkpt>
      <trkpt lat="45.92937" lon="4.39001">
        <ele>728</ele>
      </trkpt>
      <trkpt lat="45.92863" lon="4.38834">
        <ele>716</ele>
      </trkpt>
      <trkpt lat="45.92904" lon="4.38782">
        <ele>713</ele>
      </trkpt>
      <trkpt lat="45.92923" lon="4.38719">
        <ele>720</ele>
      </trkpt>
      <trkpt lat="45.92855" lon="4.38682">
        <ele>716</ele>
      </trkpt>
      <trkpt lat="45.92836" lon="4.38585">
        <ele>720</ele>
      </trkpt>
      <trkpt lat="45.92861" lon="4.38459">
        <ele>724</ele>
      </trkpt>
      <trkpt lat="45.92854" lon="4.3842">
        <ele>721.6</ele>
      </trkpt>
    </trkseg>
  </trk>
</gpx>